Time;durP1;ratioP1;P1;durP2;ratioP2;P2;SDS_P1;SDS_P2;PMS_P1;PMS_P2;Temp;Humidity;BMP_temperature;BMP_pressure;BME280_temperature;BME280_humidity;BME280_pressure;Samples;Min_cycle;Max_cycle;Signal;HPM_P1;HPM_P2
2021/09/20 00:01:20;;;;;;;7.40;6.60;;;12.20;1.00;;;;;;5071870;28;20227;-51
2021/09/20 00:03:46;;;;;;;7.77;7.07;;;12.20;1.00;;;;;;5064390;28;20183;-54
2021/09/20 00:06:11;;;;;;;7.80;7.00;;;12.20;1.00;;;;;;5070155;28;20715;-54
2021/09/20 00:08:37;;;;;;;7.63;6.93;;;12.10;1.00;;;;;;5070191;28;20676;-57
2021/09/20 00:11:03;;;;;;;7.90;6.87;;;12.20;1.00;;;;;;5071321;28;20557;-55
2021/09/20 00:13:29;;;;;;;7.47;6.67;;;12.20;1.00;;;;;;5070108;28;20423;-53
2021/09/20 00:15:54;;;;;;;7.10;6.27;;;12.20;1.00;;;;;;5071526;28;20265;-54
2021/09/20 00:18:20;;;;;;;7.23;6.57;;;12.20;1.00;;;;;;5070545;28;20477;-54
2021/09/20 00:20:45;;;;;;;7.33;6.57;;;12.10;1.00;;;;;;5071909;28;20161;-56
2021/09/20 00:23:11;;;;;;;7.80;7.10;;;12.10;1.00;;;;;;5071010;28;20170;-52
2021/09/20 00:25:37;;;;;;;7.80;7.13;;;12.10;1.00;;;;;;5070602;28;20200;-57
2021/09/20 00:28:02;;;;;;;7.43;6.63;;;12.10;1.40;;;;;;5069161;28;20205;-55
2021/09/20 00:30:28;;;;;;;7.50;6.80;;;12.10;1.00;;;;;;5070307;28;20208;-56
2021/09/20 00:32:54;;;;;;;7.23;6.53;;;12.10;1.00;;;;;;5071182;28;20181;-56
2021/09/20 00:35:19;;;;;;;7.30;6.60;;;12.10;1.00;;;;;;5070435;28;20684;-54
2021/09/20 00:37:45;;;;;;;8.60;7.80;;;12.10;1.00;;;;;;5071075;28;20161;-52
2021/09/20 00:40:12;;;;;;;7.60;6.90;;;12.10;1.00;;;;;;5069877;28;20184;-54
2021/09/20 00:42:37;;;;;;;8.93;7.43;;;12.00;1.00;;;;;;5066572;28;20288;-51
2021/09/20 00:45:05;;;;;;;8.33;7.23;;;12.00;1.00;;;;;;5050221;28;20433;-54
2021/09/20 00:47:30;;;;;;;7.70;6.90;;;12.00;1.00;;;;;;5051135;28;20416;-55
2021/09/20 00:49:56;;;;;;;7.87;6.80;;;12.10;1.00;;;;;;5059526;28;20512;-53
2021/09/20 00:52:22;;;;;;;8.00;7.20;;;12.10;1.00;;;;;;5069642;28;20624;-56
2021/09/20 00:54:50;;;;;;;8.63;7.00;;;12.10;1.40;;;;;;5062308;28;20182;-56
2021/09/20 00:57:16;;;;;;;8.27;7.17;;;12.10;1.00;;;;;;5053932;28;20171;-54
2021/09/20 00:59:41;;;;;;;8.10;7.40;;;12.00;1.00;;;;;;5070832;28;20415;-54
2021/09/20 01:02:07;;;;;;;8.37;7.47;;;12.00;1.00;;;;;;5066909;28;20185;-52
2021/09/20 01:04:33;;;;;;;7.73;7.03;;;12.00;5.10;;;;;;5065909;28;20182;-54
2021/09/20 01:06:58;;;;;;;8.00;7.20;;;12.00;9.00;;;;;;5074950;28;20542;-52
2021/09/20 01:09:25;;;;;;;9.40;7.63;;;12.00;11.10;;;;;;5070310;28;20216;-54
2021/09/20 01:11:51;;;;;;;8.37;7.57;;;12.00;15.70;;;;;;5066462;28;20536;-54
2021/09/20 01:14:17;;;;;;;8.13;7.33;;;12.00;18.10;;;;;;5069413;28;20439;-50
2021/09/20 01:16:43;;;;;;;7.60;6.90;;;12.00;20.90;;;;;;5069697;28;20412;-54
2021/09/20 01:19:08;;;;;;;7.70;7.00;;;12.00;22.60;;;;;;5068715;28;20184;-52
2021/09/20 01:21:34;;;;;;;8.00;7.20;;;11.90;23.00;;;;;;5070269;28;20290;-54
2021/09/20 01:24:00;;;;;;;7.97;7.17;;;11.90;24.60;;;;;;5069638;28;20189;-58
2021/09/20 01:26:25;;;;;;;7.90;7.20;;;11.90;27.30;;;;;;5070256;28;20166;-55
2021/09/20 01:28:51;;;;;;;8.20;7.40;;;11.90;27.50;;;;;;5069453;28;20572;-49
2021/09/20 01:31:16;;;;;;;8.17;7.37;;;11.90;28.50;;;;;;5070294;28;20176;-54
2021/09/20 01:33:42;;;;;;;9.07;8.17;;;11.90;28.20;;;;;;5069237;28;20162;-52
2021/09/20 01:36:07;;;;;;;9.47;7.67;;;11.90;28.30;;;;;;5069092;28;20185;-57
2021/09/20 01:38:33;;;;;;;8.57;7.70;;;11.90;27.20;;;;;;5068618;28;20236;-55
2021/09/20 01:40:59;;;;;;;9.27;8.13;;;11.90;26.20;;;;;;5069296;28;20533;-50
2021/09/20 01:43:25;;;;;;;8.73;7.60;;;12.00;27.40;;;;;;5069931;28;20228;-51
2021/09/20 01:45:50;;;;;;;9.17;8.27;;;12.00;26.60;;;;;;5068815;28;20432;-52
2021/09/20 01:48:17;;;;;;;8.77;7.83;;;12.00;26.60;;;;;;5069844;28;20220;-52
2021/09/20 01:50:44;;;;;;;9.53;7.10;;;12.00;25.90;;;;;;5068371;28;20188;-53
2021/09/20 01:53:09;;;;;;;9.97;7.70;;;12.00;23.10;;;;;;5069839;28;20404;-54
2021/09/20 01:55:35;;;;;;;8.33;7.43;;;12.00;23.80;;;;;;5069227;28;21144;-54
2021/09/20 01:58:01;;;;;;;8.67;7.87;;;12.00;25.40;;;;;;5069631;28;20543;-53
2021/09/20 02:00:26;;;;;;;8.40;7.30;;;12.00;26.30;;;;;;5068788;28;20226;-56
2021/09/20 02:02:52;;;;;;;7.17;6.43;;;11.90;30.00;;;;;;5060371;28;20189;-54
2021/09/20 02:05:17;;;;;;;8.37;7.57;;;11.90;32.90;;;;;;5070008;28;20178;-51
2021/09/20 02:07:43;;;;;;;7.73;6.90;;;11.90;35.70;;;;;;5079301;28;20241;-54
2021/09/20 02:10:12;;;;;;;8.13;7.43;;;11.90;38.00;;;;;;5086896;28;20185;-54
2021/09/20 02:12:37;;;;;;;7.77;6.97;;;11.90;37.00;;;;;;5089701;28;20553;-55
2021/09/20 02:15:05;;;;;;;7.80;7.00;;;11.90;33.90;;;;;;5083688;28;20428;-53
2021/09/20 02:17:31;;;;;;;7.60;6.90;;;11.90;35.10;;;;;;5061235;28;20174;-54
2021/09/20 02:19:57;;;;;;;8.60;7.30;;;11.90;34.40;;;;;;5068326;28;20548;-51
2021/09/20 02:22:22;;;;;;;8.70;7.90;;;11.90;32.80;;;;;;5073237;28;20191;-56
2021/09/20 02:24:48;;;;;;;7.80;7.00;;;11.80;26.80;;;;;;5089195;28;20181;-55
2021/09/20 02:27:14;;;;;;;7.27;6.57;;;11.90;22.30;;;;;;5074847;28;20341;-54
2021/09/20 02:29:41;;;;;;;8.07;7.27;;;11.90;19.60;;;;;;5086258;28;20280;-56
2021/09/20 02:32:06;;;;;;;7.13;6.53;;;11.90;19.90;;;;;;5078157;28;20956;-54
2021/09/20 02:34:32;;;;;;;7.30;6.50;;;11.80;16.20;;;;;;5088466;28;20403;-52
2021/09/20 02:36:58;;;;;;;7.73;7.03;;;11.90;16.20;;;;;;5078421;28;20208;-56
2021/09/20 02:39:23;;;;;;;7.80;6.90;;;11.80;13.20;;;;;;5086067;28;20258;-52
2021/09/20 02:41:49;;;;;;;8.00;6.67;;;11.90;12.50;;;;;;5081225;28;20542;-54
2021/09/20 02:44:15;;;;;;;6.93;6.23;;;11.80;13.30;;;;;;5069583;28;20468;-52
2021/09/20 02:46:41;;;;;;;7.03;6.40;;;11.90;16.90;;;;;;5079629;28;20190;-55
2021/09/20 02:49:06;;;;;;;7.10;6.20;;;11.90;14.90;;;;;;5069178;28;20205;-54
2021/09/20 02:51:32;;;;;;;7.47;6.67;;;11.90;16.00;;;;;;5068427;28;20600;-52
2021/09/20 02:53:58;;;;;;;7.27;6.57;;;11.90;16.10;;;;;;5069056;28;20208;-55
2021/09/20 02:56:23;;;;;;;6.60;6.03;;;11.80;17.50;;;;;;5068066;28;20169;-53
2021/09/20 02:58:49;;;;;;;6.63;6.03;;;11.90;15.60;;;;;;5069174;28;20932;-54
2021/09/20 03:01:15;;;;;;;7.93;6.70;;;11.90;15.60;;;;;;5070277;28;20170;-53
2021/09/20 03:03:40;;;;;;;8.87;7.73;;;11.90;17.90;;;;;;5065974;28;20196;-48
2021/09/20 03:06:06;;;;;;;7.80;7.00;;;11.80;17.30;;;;;;5076683;28;20473;-54
2021/09/20 03:08:32;;;;;;;7.90;6.87;;;11.80;19.80;;;;;;5082045;28;20224;-52
2021/09/20 03:10:57;;;;;;;7.80;6.90;;;11.80;20.60;;;;;;5091921;28;20198;-49
2021/09/20 03:13:23;;;;;;;6.83;6.23;;;11.80;20.50;;;;;;5074817;28;20230;-53
2021/09/20 03:15:48;;;;;;;7.27;6.57;;;11.80;19.90;;;;;;5072769;28;20725;-53
2021/09/20 03:18:14;;;;;;;7.23;5.33;;;11.80;8.60;;;;;;5071170;28;20190;-51
2021/09/20 03:20:40;;;;;;;7.57;6.27;;;11.80;1.00;;;;;;5071297;28;20235;-54
2021/09/20 03:23:05;;;;;;;6.17;5.60;;;11.80;1.00;;;;;;5072728;28;20178;-55
2021/09/20 03:25:31;;;;;;;6.87;6.20;;;11.80;1.00;;;;;;5071593;28;20185;-51
2021/09/20 03:27:56;;;;;;;6.43;5.83;;;11.80;1.00;;;;;;5072491;28;20185;-53
2021/09/20 03:30:22;;;;;;;6.00;5.50;;;11.80;1.00;;;;;;5071699;28;20543;-55
2021/09/20 03:32:47;;;;;;;6.73;6.13;;;11.80;1.00;;;;;;5072649;28;20921;-54
2021/09/20 03:35:15;;;;;;;6.77;6.07;;;11.80;1.00;;;;;;5071015;28;20189;-47
2021/09/20 03:37:45;;;;;;;6.13;5.53;;;11.80;1.00;;;;;;5072003;28;20200;-52
2021/09/20 03:40:12;;;;;;;6.53;5.93;;;11.80;1.00;;;;;;5070923;28;20802;-55
2021/09/20 03:42:38;;;;;;;6.60;5.23;;;11.80;1.00;;;;;;5072278;28;20463;-55
2021/09/20 03:45:04;;;;;;;6.20;5.60;;;11.70;1.00;;;;;;5071467;28;20431;-54
2021/09/20 03:47:29;;;;;;;7.60;5.63;;;11.80;1.00;;;;;;5072458;28;20158;-51
2021/09/20 03:49:55;;;;;;;6.13;5.53;;;11.80;1.00;;;;;;5071804;28;20456;-54
2021/09/20 03:52:21;;;;;;;5.93;5.30;;;11.80;1.00;;;;;;5072150;28;20178;-52
2021/09/20 03:54:46;;;;;;;5.73;5.23;;;11.80;1.00;;;;;;5071426;28;20174;-54
2021/09/20 03:57:12;;;;;;;5.90;5.40;;;11.80;1.00;;;;;;5072218;28;20169;-54
2021/09/20 03:59:37;;;;;;;5.97;5.30;;;11.80;1.00;;;;;;5071157;28;20188;-55
2021/09/20 04:02:03;;;;;;;6.00;5.40;;;11.70;1.00;;;;;;5071199;28;20251;-53
2021/09/20 04:04:28;;;;;;;6.37;5.80;;;11.70;1.00;;;;;;5058729;28;20538;-55
2021/09/20 04:06:54;;;;;;;6.20;5.60;;;11.70;1.00;;;;;;5068858;28;20245;-51
2021/09/20 04:09:21;;;;;;;6.57;5.83;;;11.70;1.00;;;;;;5091430;28;20203;-53
2021/09/20 04:11:46;;;;;;;6.83;5.83;;;11.70;1.00;;;;;;5075314;28;20182;-53
2021/09/20 04:14:12;;;;;;;8.70;5.40;;;11.70;1.00;;;;;;5087984;28;20407;-55
2021/09/20 04:16:37;;;;;;;10.43;5.80;;;11.70;1.00;;;;;;5077230;28;20251;-52
2021/09/20 04:19:03;;;;;;;5.33;4.83;;;11.70;1.00;;;;;;5071561;28;20597;-54
2021/09/20 04:21:29;;;;;;;6.60;5.90;;;11.70;1.00;;;;;;5069891;28;20192;-53
2021/09/20 04:23:54;;;;;;;6.47;5.87;;;11.70;1.00;;;;;;5071532;28;20182;-53
2021/09/20 04:26:20;;;;;;;6.83;5.50;;;11.70;1.00;;;;;;5070611;28;20196;-54
2021/09/20 04:28:45;;;;;;;6.17;5.10;;;11.60;1.00;;;;;;5085495;28;20614;-54
2021/09/20 04:31:11;;;;;;;6.80;6.10;;;11.70;1.00;;;;;;5081855;28;20257;-48
2021/09/20 04:33:36;;;;;;;6.50;5.90;;;11.60;1.00;;;;;;5080737;28;20262;-52
2021/09/20 04:36:02;;;;;;;6.90;6.20;;;11.60;1.00;;;;;;5085969;28;20188;-53
2021/09/20 04:38:28;;;;;;;6.90;6.20;;;11.70;1.00;;;;;;5080551;28;20223;-53
2021/09/20 04:40:54;;;;;;;19.03;8.97;;;11.70;1.00;;;;;;5085008;28;20197;-52
2021/09/20 04:43:20;;;;;;;12.07;6.83;;;11.70;1.00;;;;;;5071032;28;20318;-51
2021/09/20 04:45:46;;;;;;;7.63;6.00;;;11.70;1.00;;;;;;5081989;28;20446;-54
2021/09/20 04:48:11;;;;;;;6.47;5.63;;;11.70;1.00;;;;;;5081026;28;20238;-48
2021/09/20 04:50:42;;;;;;;6.40;5.80;;;11.60;1.00;;;;;;5051315;28;20150;-55
2021/09/20 04:53:13;;;;;;;7.03;6.33;;;11.60;1.00;;;;;;5069206;28;20196;-53
2021/09/20 04:55:39;;;;;;;6.77;5.90;;;11.60;1.00;;;;;;5071093;28;20392;-54
2021/09/20 04:58:06;;;;;;;6.87;6.13;;;11.70;1.00;;;;;;5070360;28;20430;-52
2021/09/20 05:00:32;;;;;;;7.83;6.10;;;11.60;1.00;;;;;;5070100;28;20453;-51
2021/09/20 05:02:58;;;;;;;7.00;5.70;;;11.60;1.00;;;;;;5071023;28;20475;-54
2021/09/20 05:05:23;;;;;;;5.80;5.20;;;11.70;1.00;;;;;;5063709;28;20428;-53
2021/09/20 05:07:49;;;;;;;7.17;6.47;;;11.60;1.00;;;;;;5081859;28;20272;-52
2021/09/20 05:10:15;;;;;;;6.10;5.50;;;11.60;1.00;;;;;;5087194;28;20180;-55
2021/09/20 05:12:41;;;;;;;6.17;5.57;;;11.60;1.00;;;;;;5077398;28;20189;-53
2021/09/20 05:15:09;;;;;;;6.13;5.53;;;11.60;1.00;;;;;;5089739;28;20419;-52
2021/09/20 05:17:34;;;;;;;6.10;5.50;;;11.60;1.00;;;;;;5081794;28;20909;-56
2021/09/20 05:20:00;;;;;;;6.10;5.60;;;11.70;1.00;;;;;;5089733;28;20472;-51
2021/09/20 05:22:26;;;;;;;8.00;7.03;;;11.70;1.00;;;;;;5081914;28;20571;-53
2021/09/20 05:24:51;;;;;;;6.40;5.80;;;11.70;1.00;;;;;;5072256;28;20185;-53
2021/09/20 05:27:17;;;;;;;6.50;5.97;;;11.70;1.00;;;;;;5056590;28;20181;-55
2021/09/20 05:29:44;;;;;;;8.60;5.50;;;11.70;1.00;;;;;;5070781;28;20566;-55
2021/09/20 05:32:10;;;;;;;7.30;5.87;;;11.70;1.00;;;;;;5069778;28;20162;-51
2021/09/20 05:34:36;;;;;;;7.10;6.10;;;11.70;1.00;;;;;;5070125;28;20495;-54
2021/09/20 05:37:01;;;;;;;6.10;5.20;;;11.70;1.00;;;;;;5068676;28;21001;-54
2021/09/20 05:39:27;;;;;;;6.47;5.90;;;11.70;1.00;;;;;;5070362;28;20181;-55
2021/09/20 05:41:52;;;;;;;7.93;5.97;;;11.80;1.00;;;;;;5069316;28;20260;-54
2021/09/20 05:44:18;;;;;;;7.40;6.00;;;11.80;1.00;;;;;;5068340;28;20274;-50
2021/09/20 05:46:44;;;;;;;6.93;6.23;;;11.80;1.00;;;;;;5067699;28;20538;-56
2021/09/20 05:49:09;;;;;;;11.20;7.20;;;11.80;1.00;;;;;;5068236;28;20875;-54
2021/09/20 05:51:35;;;;;;;6.23;5.63;;;11.90;1.00;;;;;;5069903;28;20566;-56
2021/09/20 05:54:00;;;;;;;7.13;6.33;;;11.90;1.00;;;;;;5068348;28;20212;-55
2021/09/20 05:56:26;;;;;;;8.20;6.30;;;11.90;1.00;;;;;;5069849;28;20174;-56
2021/09/20 05:58:51;;;;;;;9.33;7.67;;;11.90;1.00;;;;;;5067496;28;20184;-54
2021/09/20 06:01:17;;;;;;;6.80;6.20;;;12.00;1.00;;;;;;5070104;28;20182;-55
2021/09/20 06:03:42;;;;;;;12.50;6.93;;;12.10;1.00;;;;;;5066968;28;20976;-56
2021/09/20 06:06:08;;;;;;;12.77;8.23;;;12.10;1.00;;;;;;5064564;28;20636;-51
2021/09/20 06:08:34;;;;;;;10.63;7.30;;;12.20;1.00;;;;;;5071542;28;20209;-52
2021/09/20 06:10:59;;;;;;;13.43;7.97;;;12.10;1.00;;;;;;5078458;28;20619;-53
2021/09/20 06:13:25;;;;;;;8.83;6.60;;;12.20;1.00;;;;;;5089571;28;20188;-54
2021/09/20 06:15:52;;;;;;;6.70;6.00;;;12.20;1.00;;;;;;5068917;28;20515;-52
2021/09/20 06:18:17;;;;;;;6.87;6.17;;;12.30;1.00;;;;;;5068350;28;20239;-54
2021/09/20 06:20:43;;;;;;;9.80;6.50;;;12.20;1.00;;;;;;5075514;28;20443;-53
2021/09/20 06:23:09;;;;;;;9.80;6.83;;;12.20;1.00;;;;;;5089227;28;20267;-52
2021/09/20 06:25:34;;;;;;;8.47;6.97;;;12.30;1.00;;;;;;5076349;28;20682;-51
2021/09/20 06:28:00;;;;;;;11.20;7.17;;;12.40;1.00;;;;;;5089419;28;20189;-53
2021/09/20 06:30:26;;;;;;;11.63;7.80;;;12.40;1.00;;;;;;5075890;28;20190;-51
2021/09/20 06:32:51;;;;;;;9.83;7.67;;;12.40;1.00;;;;;;5088356;28;20177;-58
2021/09/20 06:35:17;;;;;;;8.00;7.20;;;12.40;1.00;;;;;;5075353;28;20709;-54
2021/09/20 06:37:42;;;;;;;9.67;6.57;;;12.40;1.00;;;;;;5083485;28;20181;-53
2021/09/20 06:40:10;;;;;;;10.67;7.13;;;12.40;1.00;;;;;;5088027;28;20192;-52
2021/09/20 06:42:35;;;;;;;7.07;6.43;;;12.40;1.00;;;;;;5083444;28;20313;-47
2021/09/20 06:45:01;;;;;;;10.70;7.90;;;12.50;1.00;;;;;;5059382;28;20530;-50
2021/09/20 06:47:27;;;;;;;6.50;5.90;;;12.50;1.00;;;;;;5068788;28;20692;-50
2021/09/20 06:49:52;;;;;;;12.30;6.80;;;12.60;1.00;;;;;;5067413;28;20245;-55
2021/09/20 06:52:18;;;;;;;9.30;7.23;;;12.60;1.00;;;;;;5086779;28;20561;-54
2021/09/20 06:54:45;;;;;;;9.20;6.30;;;12.60;1.00;;;;;;5072576;28;20189;-51
2021/09/20 06:57:10;;;;;;;9.60;6.63;;;12.70;1.00;;;;;;5069113;28;20412;-54
2021/09/20 06:59:36;;;;;;;8.60;6.50;;;12.70;1.00;;;;;;5067740;28;21400;-50
2021/09/20 07:02:02;;;;;;;6.67;6.03;;;12.80;1.00;;;;;;5068927;28;20282;-54
2021/09/20 07:04:28;;;;;;;7.13;6.20;;;12.90;1.00;;;;;;5067919;28;20235;-56
2021/09/20 07:06:54;;;;;;;9.53;6.73;;;12.90;1.00;;;;;;5068891;28;21075;-56
2021/09/20 07:09:19;;;;;;;7.33;6.20;;;12.90;1.00;;;;;;5068780;28;20466;-52
2021/09/20 07:11:45;;;;;;;8.37;6.00;;;13.00;1.00;;;;;;5067846;28;20213;-54
2021/09/20 07:14:11;;;;;;;11.40;7.37;;;13.10;1.00;;;;;;5068845;28;20174;-55
2021/09/20 07:16:37;;;;;;;7.20;6.33;;;13.10;1.00;;;;;;5067795;28;20747;-54
2021/09/20 07:19:04;;;;;;;7.30;6.40;;;13.10;1.00;;;;;;5066772;28;20629;-55
2021/09/20 07:21:29;;;;;;;6.60;6.00;;;13.10;1.00;;;;;;5068258;28;20542;-53
2021/09/20 07:23:55;;;;;;;6.60;5.70;;;13.10;1.00;;;;;;5067064;28;21219;-53
2021/09/20 07:26:24;;;;;;;7.23;6.10;;;13.10;1.00;;;;;;5067168;28;20428;-52
2021/09/20 07:28:50;;;;;;;7.00;6.30;;;13.10;1.00;;;;;;5068967;28;21270;-53
2021/09/20 07:31:16;;;;;;;8.43;6.13;;;13.20;1.00;;;;;;5068101;28;20435;-55
2021/09/20 07:33:42;;;;;;;8.70;6.33;;;13.20;1.00;;;;;;5068619;28;20174;-56
2021/09/20 07:36:08;;;;;;;6.77;6.17;;;13.10;1.00;;;;;;5067936;28;20174;-53
2021/09/20 07:38:34;;;;;;;7.27;6.57;;;13.10;1.00;;;;;;5068530;28;20439;-55
2021/09/20 07:41:00;;;;;;;6.67;6.03;;;13.10;1.00;;;;;;5068068;28;20194;-54
2021/09/20 07:43:26;;;;;;;8.10;6.97;;;13.20;1.00;;;;;;5068500;28;20550;-54
2021/09/20 07:45:52;;;;;;;9.77;6.73;;;13.30;1.00;;;;;;5063952;28;20538;-55
2021/09/20 07:48:17;;;;;;;10.67;6.33;;;13.30;1.00;;;;;;5073134;28;20209;-57
2021/09/20 07:50:43;;;;;;;7.10;6.17;;;13.30;1.00;;;;;;5072063;28;20213;-53
2021/09/20 07:53:09;;;;;;;10.17;6.33;;;13.30;1.00;;;;;;5083616;28;20703;-54
2021/09/20 07:55:35;;;;;;;7.30;6.43;;;13.40;1.00;;;;;;5089275;28;20185;-53
2021/09/20 07:58:08;;;;;;;8.23;6.53;;;13.50;1.00;;;;;;5080826;28;20217;-53
2021/09/20 08:00:36;;;;;;;8.27;6.00;;;13.50;1.00;;;;;;5088299;28;20439;-52
2021/09/20 08:03:06;;;;;;;6.50;5.90;;;13.60;1.00;;;;;;5089525;28;20426;-52
2021/09/20 08:05:31;;;;;;;6.10;5.60;;;13.60;99.90;;;;;;5087818;28;20552;-54
2021/09/20 08:07:57;;;;;;;8.30;7.50;;;13.60;1.00;;;;;;5091648;28;20502;-54
2021/09/20 08:10:22;;;;;;;6.60;6.00;;;13.70;99.90;;;;;;5084956;28;20176;-53
2021/09/20 08:12:48;;;;;;;6.63;6.03;;;13.90;24.20;;;;;;5089807;28;20181;-53
2021/09/20 08:15:14;;;;;;;6.80;6.20;;;13.70;99.90;;;;;;5088244;28;20712;-54
2021/09/20 08:17:39;;;;;;;7.37;6.50;;;13.80;99.90;;;;;;5075766;28;20227;-52
2021/09/20 08:20:07;;;;;;;7.67;6.80;;;13.90;99.90;;;;;;5077972;28;20184;-53
2021/09/20 08:22:33;;;;;;;7.23;6.07;;;14.00;99.90;;;;;;5081641;28;20235;-55
2021/09/20 08:24:59;;;;;;;9.00;6.87;;;14.10;99.90;;;;;;5091751;28;20423;-52
2021/09/20 08:27:26;;;;;;;13.90;8.07;;;14.30;99.90;;;;;;5082962;28;20431;-53
2021/09/20 08:29:52;;;;;;;7.40;6.60;;;14.20;99.90;;;;;;5076935;28;20470;-53
2021/09/20 08:32:19;;;;;;;9.60;6.83;;;14.40;99.90;;;;;;5077442;28;20527;-55
2021/09/20 08:34:44;;;;;;;7.10;6.50;;;14.50;99.90;;;;;;5089677;28;20173;-53
2021/09/20 08:37:10;;;;;;;7.60;6.90;;;14.60;99.90;;;;;;5085590;28;20443;-51
2021/09/20 08:39:36;;;;;;;7.20;6.47;;;14.70;99.90;;;;;;5089724;28;20233;-55
2021/09/20 08:42:02;;;;;;;8.00;7.20;;;14.80;99.90;;;;;;5086740;28;20185;-49
2021/09/20 08:44:27;;;;;;;8.60;7.70;;;15.10;99.90;;;;;;5085226;28;20315;-52
2021/09/20 08:46:54;;;;;;;7.67;6.67;;;15.00;99.90;;;;;;5064084;28;20434;-55
2021/09/20 08:49:21;;;;;;;8.40;7.50;;;15.20;1.00;;;;;;5082938;28;20208;-54
2021/09/20 08:51:50;;;;;;;8.27;7.40;;;15.30;1.00;;;;;;5088503;28;20437;-53
2021/09/20 08:54:17;;;;;;;9.70;7.03;;;15.40;99.90;;;;;;5079309;28;20435;-51
2021/09/20 08:56:43;;;;;;;7.83;7.20;;;15.40;99.90;;;;;;5088343;28;20501;-53
2021/09/20 08:59:08;;;;;;;7.20;6.60;;;15.50;1.00;;;;;;5066714;28;21133;-52
2021/09/20 09:01:35;;;;;;;7.33;6.73;;;15.60;99.90;;;;;;5051208;28;20181;-55
2021/09/20 09:04:24;;;;;;;7.60;6.93;;;15.80;99.90;;;;;;5065238;28;20197;-53
2021/09/20 09:06:57;;;;;;;7.60;6.90;;;15.80;1.00;;;;;;5070842;28;20440;-51
2021/09/20 09:09:36;;;;;;;7.40;6.70;;;15.90;99.90;;;;;;5069593;28;20468;-55
2021/09/20 09:12:11;;;;;;;7.77;7.07;;;16.00;1.00;;;;;;5070455;28;20412;-53
2021/09/20 09:14:48;;;;;;;7.43;6.83;;;16.20;99.90;;;;;;5069820;28;20793;-54
2021/09/20 09:17:16;;;;;;;7.90;7.20;;;16.30;99.90;;;;;;5070611;28;20409;-53
2021/09/20 09:19:49;;;;;;;7.40;6.70;;;16.50;1.00;;;;;;5069734;28;20914;-47
2021/09/20 09:22:15;;;;;;;7.97;6.50;;;16.40;99.90;;;;;;5070871;28;20868;-55
2021/09/20 09:24:59;;;;;;;7.00;6.50;;;16.50;1.00;;;;;;5069574;28;20431;-50
2021/09/20 09:27:26;;;;;;;8.00;7.30;;;16.60;1.00;;;;;;5070530;28;20409;-54
2021/09/20 09:30:01;;;;;;;7.10;6.40;;;16.60;1.00;;;;;;5069436;28;20552;-50
2021/09/20 09:32:27;;;;;;;7.90;7.10;;;16.50;1.00;;;;;;5069684;28;20400;-56
2021/09/20 09:34:55;;;;;;;9.60;7.10;;;16.60;1.00;;;;;;5069249;28;20494;-54
2021/09/20 09:37:21;;;;;;;6.87;6.27;;;16.90;1.00;;;;;;5070138;28;20282;-50
2021/09/20 09:39:47;;;;;;;7.20;6.70;;;16.80;1.00;;;;;;5069484;28;20420;-58
2021/09/20 09:42:23;;;;;;;6.90;6.23;;;16.90;1.00;;;;;;5069417;28;20408;-56
2021/09/20 09:44:50;;;;;;;7.53;6.87;;;16.80;1.00;;;;;;5065272;28;20279;-56
2021/09/20 09:47:25;;;;;;;7.70;7.00;;;16.90;1.00;;;;;;5064031;28;20415;-54
2021/09/20 09:50:20;;;;;;;6.83;6.23;;;16.80;99.90;;;;;;5064533;28;20565;-53
2021/09/20 09:52:48;;;;;;;6.50;5.90;;;16.80;99.90;;;;;;5059425;28;20433;-54
2021/09/20 09:55:14;;;;;;;7.30;6.70;;;16.90;99.90;;;;;;5074737;28;20435;-55
2021/09/20 09:57:40;;;;;;;7.07;6.47;;;17.00;99.90;;;;;;5081436;28;20416;-55
2021/09/20 10:00:12;;;;;;;6.67;6.17;;;16.90;99.90;;;;;;5079366;28;20423;-55
2021/09/20 10:02:46;;;;;;;7.83;7.20;;;16.60;99.90;;;;;;5087576;28;20208;-56
2021/09/20 10:05:18;;;;;;;7.30;6.70;;;16.60;99.90;;;;;;5070376;28;20468;-50
2021/09/20 10:07:48;;;;;;;7.67;7.07;;;16.40;99.90;;;;;;5081579;28;20413;-52
2021/09/20 10:10:17;;;;;;;8.40;7.70;;;16.40;99.90;;;;;;5069545;28;20456;-56
2021/09/20 10:12:45;;;;;;;7.63;7.00;;;16.50;99.90;;;;;;5068162;28;20424;-53
2021/09/20 10:15:14;;;;;;;8.10;7.00;;;16.50;99.90;;;;;;5070511;28;20512;-57
2021/09/20 10:17:41;;;;;;;7.70;7.10;;;16.40;99.90;;;;;;5089830;28;20416;-55
2021/09/20 10:20:09;;;;;;;8.10;7.20;;;16.50;99.90;;;;;;5058856;28;20491;-56
2021/09/20 10:22:35;;;;;;;8.30;7.70;;;16.50;99.90;;;;;;5069570;28;20459;-55
2021/09/20 10:25:03;;;;;;;8.10;7.50;;;16.70;99.90;;;;;;5068585;28;20538;-56
2021/09/20 10:27:30;;;;;;;8.00;7.40;;;17.00;99.90;;;;;;5069611;28;20174;-55
2021/09/20 10:30:06;;;;;;;7.77;7.17;;;17.10;99.90;;;;;;5069514;28;20522;-52
2021/09/20 10:32:32;;;;;;;8.13;7.50;;;17.40;99.90;;;;;;5049486;28;20461;-52
2021/09/20 10:35:33;;;;;;;8.90;8.23;;;17.40;62.60;;;;;;5049512;28;20447;-51
2021/09/20 10:38:01;;;;;;;8.30;7.57;;;17.60;1.00;;;;;;4968014;28;20435;-56
2021/09/20 10:40:28;;;;;;;9.30;8.60;;;17.70;1.00;;;;;;5034724;28;20426;-53
2021/09/20 10:42:57;;;;;;;10.10;9.30;;;17.70;1.00;;;;;;5063901;28;20469;-54
2021/09/20 10:45:34;;;;;;;9.63;8.93;;;17.70;1.00;;;;;;5063804;28;20478;-54
2021/09/20 10:48:13;;;;;;;9.70;9.03;;;18.10;1.00;;;;;;5070748;28;20419;-53
2021/09/20 10:50:46;;;;;;;8.90;8.13;;;18.40;1.00;;;;;;5069879;28;20488;-54
2021/09/20 10:53:33;;;;;;;9.60;8.80;;;18.50;1.00;;;;;;5071844;28;20502;-55
2021/09/20 10:56:02;;;;;;;9.17;8.50;;;18.60;1.00;;;;;;5081240;28;20601;-57
2021/09/20 10:58:38;;;;;;;9.90;9.10;;;18.80;1.00;;;;;;5088305;28;20472;-53
2021/09/20 11:01:15;;;;;;;10.33;9.53;;;19.00;1.00;;;;;;5084242;28;21179;-55
2021/09/20 11:03:45;;;;;;;9.97;9.20;;;19.10;1.00;;;;;;5090344;28;20410;-51
2021/09/20 11:06:23;;;;;;;11.90;11.00;;;19.40;1.00;;;;;;5082817;28;20530;-52
2021/09/20 11:08:57;;;;;;;11.73;10.83;;;19.20;1.00;;;;;;5073033;28;20475;-55
2021/09/20 11:11:42;;;;;;;10.70;9.90;;;19.00;1.00;;;;;;5055692;28;20819;-56
2021/09/20 11:14:11;;;;;;;11.83;11.00;;;19.10;1.00;;;;;;5070561;28;20404;-50
2021/09/20 11:16:56;;;;;;;12.03;11.13;;;19.20;1.00;;;;;;5069948;28;20431;-54
2021/09/20 11:19:28;;;;;;;13.27;12.27;;;19.00;1.00;;;;;;5070831;28;20426;-48
2021/09/20 11:22:05;;;;;;;12.33;11.33;;;18.90;1.00;;;;;;5070009;28;20435;-53
2021/09/20 11:24:52;;;;;;;12.60;11.60;;;18.80;1.00;;;;;;5074242;28;20420;-52
2021/09/20 11:27:30;;;;;;;12.80;11.80;;;18.70;1.00;;;;;;5073684;28;20431;-52
2021/09/20 11:30:12;;;;;;;13.03;11.93;;;18.40;1.00;;;;;;5074195;28;20455;-56
2021/09/20 11:32:55;;;;;;;11.87;10.87;;;18.30;1.00;;;;;;5073569;28;21070;-54
2021/09/20 11:35:21;;;;;;;12.93;11.90;;;18.20;1.00;;;;;;5074050;28;20493;-52
2021/09/20 11:37:47;;;;;;;13.73;12.43;;;18.20;1.00;;;;;;5073456;28;20449;-52
2021/09/20 11:40:19;;;;;;;13.50;12.40;;;18.30;1.00;;;;;;5073920;28;20400;-51
2021/09/20 11:42:51;;;;;;;13.10;12.10;;;18.50;1.00;;;;;;5066110;28;20226;-55
2021/09/20 11:45:21;;;;;;;12.97;11.87;;;18.60;1.00;;;;;;5065166;28;20466;-55
2021/09/20 11:47:50;;;;;;;14.43;13.33;;;18.50;1.00;;;;;;5071671;28;20492;-51
2021/09/20 11:50:22;;;;;;;13.80;12.37;;;18.70;99.90;;;;;;5072270;28;20461;-51
2021/09/20 11:52:56;;;;;;;15.27;14.07;;;18.70;99.90;;;;;;5071214;28;20438;-52
2021/09/20 11:55:32;;;;;;;19.77;18.17;;;18.50;99.90;;;;;;5071457;28;20423;-53
2021/09/20 11:58:01;;;;;;;12.77;11.77;;;18.50;99.90;;;;;;5066217;28;20511;-48
2021/09/20 12:00:30;;;;;;;13.50;12.47;;;18.60;99.90;;;;;;5052345;28;20443;-53
2021/09/20 12:02:58;;;;;;;13.43;12.33;;;18.50;99.90;;;;;;5062217;28;20449;-55
2021/09/20 12:05:33;;;;;;;12.93;11.93;;;18.20;99.90;;;;;;5071516;28;20466;-51
2021/09/20 12:08:00;;;;;;;13.17;12.03;;;18.30;99.90;;;;;;5070871;28;20438;-49
2021/09/20 12:10:34;;;;;;;11.33;10.43;;;18.10;99.90;;;;;;5071950;28;20447;-49
2021/09/20 12:13:03;;;;;;;11.70;10.80;;;18.00;99.90;;;;;;5072109;28;20495;-48
2021/09/20 12:15:32;;;;;;;11.63;10.73;;;18.00;99.90;;;;;;5071962;28;20438;-50
2021/09/20 12:18:03;;;;;;;10.40;9.43;;;17.90;99.90;;;;;;5071125;28;20449;-49
2021/09/20 12:20:46;;;;;;;9.80;9.10;;;17.90;99.90;;;;;;5070628;28;20426;-48
2021/09/20 12:23:17;;;;;;;9.23;8.50;;;17.70;99.90;;;;;;5070874;28;20425;-47
2021/09/20 12:25:49;;;;;;;9.23;8.53;;;17.60;99.90;;;;;;5071763;28;20500;-50
2021/09/20 12:28:27;;;;;;;9.30;8.53;;;17.70;99.90;;;;;;5071154;28;20760;-50
2021/09/20 12:31:10;;;;;;;8.60;7.80;;;17.70;99.90;;;;;;5072123;28;20414;-52
2021/09/20 12:34:01;;;;;;;10.03;9.33;;;17.70;99.90;;;;;;5058966;28;20435;-53
2021/09/20 12:36:45;;;;;;;7.73;7.13;;;17.60;99.90;;;;;;5051537;28;20914;-53
2021/09/20 12:39:17;;;;;;;7.43;6.93;;;17.60;99.90;;;;;;5066313;28;20487;-53
2021/09/20 12:41:46;;;;;;;10.37;9.60;;;17.60;99.90;;;;;;5071394;28;20416;-51
2021/09/20 12:44:35;;;;;;;7.80;7.10;;;17.40;99.90;;;;;;5068537;28;20469;-56
2021/09/20 12:47:04;;;;;;;7.37;6.77;;;17.20;99.90;;;;;;5071041;28;20483;-53
2021/09/20 12:49:30;;;;;;;7.90;7.30;;;17.20;99.90;;;;;;5070316;28;20496;-46
2021/09/20 12:51:56;;;;;;;9.03;8.20;;;17.10;99.90;;;;;;5071279;28;20911;-48
2021/09/20 12:54:29;;;;;;;8.30;7.70;;;17.10;99.90;;;;;;5070444;28;20486;-51